sensor_id;sensor_type;location;lat;lon;timestamp;P1;durP1;ratioP1;P2;durP2;ratioP2
17369;SDS011;8802;52.402;4.920;2024-02-04T00:00:31;4.32;;;2.70;;
17369;SDS011;8802;52.402;4.920;2024-02-04T00:02:58;3.38;;;2.70;;
17369;SDS011;8802;52.402;4.920;2024-02-04T00:05:26;6.50;;;3.35;;
17369;SDS011;8802;52.402;4.920;2024-02-04T00:07:53;4.22;;;3.35;;
17369;SDS011;8802;52.402;4.920;2024-02-04T00:10:20;5.50;;;3.50;;
17369;SDS011;8802;52.402;4.920;2024-02-04T00:12:47;6.50;;;4.75;;
17369;SDS011;8802;52.402;4.920;2024-02-04T00:15:14;7.82;;;6.22;;
17369;SDS011;8802;52.402;4.920;2024-02-04T00:17:40;6.97;;;5.60;;
17369;SDS011;8802;52.402;4.920;2024-02-04T00:20:08;8.50;;;6.55;;
17369;SDS011;8802;52.402;4.920;2024-02-04T00:22:36;8.35;;;6.20;;
17369;SDS011;8802;52.402;4.920;2024-02-04T00:25:03;7.88;;;7.07;;
17369;SDS011;8802;52.402;4.920;2024-02-04T00:27:31;9.88;;;8.85;;
17369;SDS011;8802;52.402;4.920;2024-02-04T00:29:58;10.98;;;9.20;;
17369;SDS011;8802;52.402;4.920;2024-02-04T00:32:25;13.32;;;10.27;;
17369;SDS011;8802;52.402;4.920;2024-02-04T00:34:52;9.43;;;7.53;;
17369;SDS011;8802;52.402;4.920;2024-02-04T00:37:19;11.85;;;8.82;;
17369;SDS011;8802;52.402;4.920;2024-02-04T00:39:47;9.63;;;5.88;;
17369;SDS011;8802;52.402;4.920;2024-02-04T00:42:14;10.77;;;6.32;;
17369;SDS011;8802;52.402;4.920;2024-02-04T00:44:41;11.02;;;6.03;;
17369;SDS011;8802;52.402;4.920;2024-02-04T00:47:08;11.93;;;5.25;;
17369;SDS011;8802;52.402;4.920;2024-02-04T00:49:35;9.70;;;5.05;;
17369;SDS011;8802;52.402;4.920;2024-02-04T00:52:02;9.55;;;5.55;;
17369;SDS011;8802;52.402;4.920;2024-02-04T00:54:29;10.77;;;4.53;;
17369;SDS011;8802;52.402;4.920;2024-02-04T00:56:57;8.30;;;4.75;;
17369;SDS011;8802;52.402;4.920;2024-02-04T00:59:25;7.78;;;5.10;;
17369;SDS011;8802;52.402;4.920;2024-02-04T01:01:51;10.07;;;5.38;;
17369;SDS011;8802;52.402;4.920;2024-02-04T01:04:18;10.07;;;4.90;;
17369;SDS011;8802;52.402;4.920;2024-02-04T01:06:45;9.63;;;4.57;;
17369;SDS011;8802;52.402;4.920;2024-02-04T01:09:12;6.10;;;4.43;;
17369;SDS011;8802;52.402;4.920;2024-02-04T01:11:39;9.25;;;4.25;;
17369;SDS011;8802;52.402;4.920;2024-02-04T01:14:07;7.60;;;4.22;;
17369;SDS011;8802;52.402;4.920;2024-02-04T01:16:34;8.70;;;3.05;;
17369;SDS011;8802;52.402;4.920;2024-02-04T01:19:00;6.15;;;3.28;;
17369;SDS011;8802;52.402;4.920;2024-02-04T01:21:27;9.45;;;3.40;;
17369;SDS011;8802;52.402;4.920;2024-02-04T01:23:54;12.88;;;3.85;;
17369;SDS011;8802;52.402;4.920;2024-02-04T01:26:21;10.25;;;3.50;;
17369;SDS011;8802;52.402;4.920;2024-02-04T01:28:49;12.77;;;4.68;;
17369;SDS011;8802;52.402;4.920;2024-02-04T01:31:17;8.55;;;3.75;;
17369;SDS011;8802;52.402;4.920;2024-02-04T01:33:44;6.63;;;4.55;;
17369;SDS011;8802;52.402;4.920;2024-02-04T01:36:11;6.43;;;4.30;;
17369;SDS011;8802;52.402;4.920;2024-02-04T01:38:37;8.20;;;3.67;;
17369;SDS011;8802;52.402;4.920;2024-02-04T01:41:04;11.73;;;4.30;;
17369;SDS011;8802;52.402;4.920;2024-02-04T01:43:31;7.55;;;4.53;;
17369;SDS011;8802;52.402;4.920;2024-02-04T01:45:58;10.40;;;4.20;;
17369;SDS011;8802;52.402;4.920;2024-02-04T01:48:26;7.15;;;4.25;;
17369;SDS011;8802;52.402;4.920;2024-02-04T01:50:53;10.80;;;3.78;;
17369;SDS011;8802;52.402;4.920;2024-02-04T01:53:22;10.07;;;4.47;;
17369;SDS011;8802;52.402;4.920;2024-02-04T01:55:50;7.55;;;4.00;;
17369;SDS011;8802;52.402;4.920;2024-02-04T01:58:17;10.13;;;4.88;;
17369;SDS011;8802;52.402;4.920;2024-02-04T02:00:44;11.70;;;4.63;;
17369;SDS011;8802;52.402;4.920;2024-02-04T02:03:12;10.57;;;4.45;;
17369;SDS011;8802;52.402;4.920;2024-02-04T02:05:41;12.32;;;4.38;;
17369;SDS011;8802;52.402;4.920;2024-02-04T02:08:08;9.45;;;3.90;;
17369;SDS011;8802;52.402;4.920;2024-02-04T02:10:36;11.20;;;3.65;;
17369;SDS011;8802;52.402;4.920;2024-02-04T02:13:06;5.90;;;2.63;;
17369;SDS011;8802;52.402;4.920;2024-02-04T02:15:39;8.73;;;2.70;;
17369;SDS011;8802;52.402;4.920;2024-02-04T02:18:10;6.68;;;3.00;;
17369;SDS011;8802;52.402;4.920;2024-02-04T02:20:45;6.63;;;2.83;;
17369;SDS011;8802;52.402;4.920;2024-02-04T02:23:30;7.40;;;2.30;;
17369;SDS011;8802;52.402;4.920;2024-02-04T02:26:01;6.93;;;2.28;;
17369;SDS011;8802;52.402;4.920;2024-02-04T02:28:30;5.28;;;2.30;;
17369;SDS011;8802;52.402;4.920;2024-02-04T02:30:57;7.90;;;2.20;;
17369;SDS011;8802;52.402;4.920;2024-02-04T02:33:24;5.75;;;2.38;;
17369;SDS011;8802;52.402;4.920;2024-02-04T02:35:52;8.27;;;2.45;;
17369;SDS011;8802;52.402;4.920;2024-02-04T02:38:23;5.65;;;2.45;;
17369;SDS011;8802;52.402;4.920;2024-02-04T02:40:58;7.45;;;2.40;;
17369;SDS011;8802;52.402;4.920;2024-02-04T02:43:30;6.00;;;2.58;;
17369;SDS011;8802;52.402;4.920;2024-02-04T02:46:00;8.65;;;2.67;;
17369;SDS011;8802;52.402;4.920;2024-02-04T02:48:27;7.03;;;2.30;;
17369;SDS011;8802;52.402;4.920;2024-02-04T02:50:54;9.07;;;2.90;;
17369;SDS011;8802;52.402;4.920;2024-02-04T02:53:21;8.02;;;2.72;;
17369;SDS011;8802;52.402;4.920;2024-02-04T02:55:48;7.35;;;2.47;;
17369;SDS011;8802;52.402;4.920;2024-02-04T02:58:15;6.07;;;2.65;;
17369;SDS011;8802;52.402;4.920;2024-02-04T03:00:43;4.68;;;2.20;;
17369;SDS011;8802;52.402;4.920;2024-02-04T03:03:11;7.97;;;2.08;;
17369;SDS011;8802;52.402;4.920;2024-02-04T03:05:38;5.20;;;1.85;;
17369;SDS011;8802;52.402;4.920;2024-02-04T03:08:05;6.45;;;2.20;;
17369;SDS011;8802;52.402;4.920;2024-02-04T03:10:32;7.70;;;2.20;;
17369;SDS011;8802;52.402;4.920;2024-02-04T03:12:59;6.13;;;2.00;;
17369;SDS011;8802;52.402;4.920;2024-02-04T03:15:26;6.38;;;2.55;;
17369;SDS011;8802;52.402;4.920;2024-02-04T03:17:54;8.73;;;2.03;;
17369;SDS011;8802;52.402;4.920;2024-02-04T03:20:21;4.70;;;1.95;;
17369;SDS011;8802;52.402;4.920;2024-02-04T03:22:47;6.55;;;2.30;;
17369;SDS011;8802;52.402;4.920;2024-02-04T03:25:14;5.40;;;2.17;;
17369;SDS011;8802;52.402;4.920;2024-02-04T03:27:41;6.40;;;1.83;;
17369;SDS011;8802;52.402;4.920;2024-02-04T03:30:09;5.50;;;1.90;;
17369;SDS011;8802;52.402;4.920;2024-02-04T03:32:36;4.65;;;1.90;;
17369;SDS011;8802;52.402;4.920;2024-02-04T03:35:05;9.35;;;1.98;;
17369;SDS011;8802;52.402;4.920;2024-02-04T03:37:32;6.45;;;1.90;;
17369;SDS011;8802;52.402;4.920;2024-02-04T03:39:59;5.05;;;1.70;;
17369;SDS011;8802;52.402;4.920;2024-02-04T03:42:26;7.70;;;1.75;;
17369;SDS011;8802;52.402;4.920;2024-02-04T03:44:53;8.00;;;2.30;;
17369;SDS011;8802;52.402;4.920;2024-02-04T03:47:20;8.07;;;2.08;;
17369;SDS011;8802;52.402;4.920;2024-02-04T03:49:47;6.32;;;1.65;;
17369;SDS011;8802;52.402;4.920;2024-02-04T03:52:15;8.95;;;1.95;;
17369;SDS011;8802;52.402;4.920;2024-02-04T03:54:41;9.30;;;2.10;;
17369;SDS011;8802;52.402;4.920;2024-02-04T03:57:08;9.85;;;2.10;;
17369;SDS011;8802;52.402;4.920;2024-02-04T03:59:35;10.38;;;2.40;;
17369;SDS011;8802;52.402;4.920;2024-02-04T04:02:02;7.65;;;2.13;;
17369;SDS011;8802;52.402;4.920;2024-02-04T04:04:29;8.68;;;2.08;;
17369;SDS011;8802;52.402;4.920;2024-02-04T04:06:56;5.65;;;2.05;;
17369;SDS011;8802;52.402;4.920;2024-02-04T04:09:24;6.85;;;2.05;;
17369;SDS011;8802;52.402;4.920;2024-02-04T04:11:51;6.07;;;1.73;;
17369;SDS011;8802;52.402;4.920;2024-02-04T04:14:17;8.63;;;2.03;;
17369;SDS011;8802;52.402;4.920;2024-02-04T04:16:44;10.45;;;2.15;;
17369;SDS011;8802;52.402;4.920;2024-02-04T04:19:11;9.57;;;2.33;;
17369;SDS011;8802;52.402;4.920;2024-02-04T04:21:38;5.95;;;1.85;;
17369;SDS011;8802;52.402;4.920;2024-02-04T04:24:05;9.55;;;1.90;;
17369;SDS011;8802;52.402;4.920;2024-02-04T04:26:33;5.35;;;1.63;;
17369;SDS011;8802;52.402;4.920;2024-02-04T04:29:00;6.47;;;1.92;;
17369;SDS011;8802;52.402;4.920;2024-02-04T04:31:27;7.05;;;2.10;;
17369;SDS011;8802;52.402;4.920;2024-02-04T04:33:54;8.93;;;2.20;;
17369;SDS011;8802;52.402;4.920;2024-02-04T04:36:20;9.20;;;1.77;;
17369;SDS011;8802;52.402;4.920;2024-02-04T04:38:47;8.60;;;2.20;;
17369;SDS011;8802;52.402;4.920;2024-02-04T04:41:15;11.00;;;2.60;;
17369;SDS011;8802;52.402;4.920;2024-02-04T04:43:43;13.25;;;2.78;;
17369;SDS011;8802;52.402;4.920;2024-02-04T04:46:10;14.60;;;2.50;;
17369;SDS011;8802;52.402;4.920;2024-02-04T04:48:37;7.40;;;3.05;;
17369;SDS011;8802;52.402;4.920;2024-02-04T04:51:04;11.95;;;2.70;;
17369;SDS011;8802;52.402;4.920;2024-02-04T04:53:33;9.88;;;2.60;;
17369;SDS011;8802;52.402;4.920;2024-02-04T04:56:00;7.57;;;2.33;;
17369;SDS011;8802;52.402;4.920;2024-02-04T04:58:27;6.90;;;2.08;;
17369;SDS011;8802;52.402;4.920;2024-02-04T05:00:55;8.88;;;2.15;;
17369;SDS011;8802;52.402;4.920;2024-02-04T05:03:22;8.10;;;2.00;;
17369;SDS011;8802;52.402;4.920;2024-02-04T05:05:49;7.60;;;1.88;;
17369;SDS011;8802;52.402;4.920;2024-02-04T05:08:16;10.52;;;2.22;;
17369;SDS011;8802;52.402;4.920;2024-02-04T05:10:42;10.32;;;2.22;;
17369;SDS011;8802;52.402;4.920;2024-02-04T05:13:09;6.03;;;1.52;;
17369;SDS011;8802;52.402;4.920;2024-02-04T05:15:36;9.52;;;1.90;;
17369;SDS011;8802;52.402;4.920;2024-02-04T05:18:04;5.15;;;2.03;;
17369;SDS011;8802;52.402;4.920;2024-02-04T05:20:31;7.68;;;2.10;;
17369;SDS011;8802;52.402;4.920;2024-02-04T05:22:58;7.82;;;2.25;;
17369;SDS011;8802;52.402;4.920;2024-02-04T05:25:25;10.43;;;2.10;;
17369;SDS011;8802;52.402;4.920;2024-02-04T05:27:52;6.03;;;1.65;;
17369;SDS011;8802;52.402;4.920;2024-02-04T05:30:18;8.43;;;1.88;;
17369;SDS011;8802;52.402;4.920;2024-02-04T05:32:45;8.48;;;1.90;;
17369;SDS011;8802;52.402;4.920;2024-02-04T05:35:13;8.57;;;2.05;;
17369;SDS011;8802;52.402;4.920;2024-02-04T05:37:40;6.55;;;1.80;;
17369;SDS011;8802;52.402;4.920;2024-02-04T05:40:07;9.52;;;2.65;;
17369;SDS011;8802;52.402;4.920;2024-02-04T05:42:34;6.35;;;1.55;;
17369;SDS011;8802;52.402;4.920;2024-02-04T05:45:02;5.78;;;1.60;;
17369;SDS011;8802;52.402;4.920;2024-02-04T05:47:30;7.90;;;1.98;;
17369;SDS011;8802;52.402;4.920;2024-02-04T05:49:57;6.78;;;1.70;;
17369;SDS011;8802;52.402;4.920;2024-02-04T05:52:25;4.53;;;1.58;;
17369;SDS011;8802;52.402;4.920;2024-02-04T05:54:52;8.38;;;2.38;;
17369;SDS011;8802;52.402;4.920;2024-02-04T05:57:18;4.47;;;1.45;;
17369;SDS011;8802;52.402;4.920;2024-02-04T05:59:45;5.90;;;1.80;;
17369;SDS011;8802;52.402;4.920;2024-02-04T06:02:13;5.18;;;1.75;;
17369;SDS011;8802;52.402;4.920;2024-02-04T06:04:40;7.75;;;1.70;;
17369;SDS011;8802;52.402;4.920;2024-02-04T06:07:07;7.32;;;1.58;;
17369;SDS011;8802;52.402;4.920;2024-02-04T06:09:35;7.35;;;1.60;;
17369;SDS011;8802;52.402;4.920;2024-02-04T06:12:02;8.20;;;1.90;;
17369;SDS011;8802;52.402;4.920;2024-02-04T06:14:32;5.70;;;1.73;;
17369;SDS011;8802;52.402;4.920;2024-02-04T06:16:59;6.05;;;1.73;;
17369;SDS011;8802;52.402;4.920;2024-02-04T06:19:26;6.05;;;1.77;;
17369;SDS011;8802;52.402;4.920;2024-02-04T06:21:53;5.65;;;1.63;;
17369;SDS011;8802;52.402;4.920;2024-02-04T06:24:20;6.05;;;1.83;;
17369;SDS011;8802;52.402;4.920;2024-02-04T06:26:48;5.45;;;1.75;;
17369;SDS011;8802;52.402;4.920;2024-02-04T06:29:14;5.38;;;1.50;;
17369;SDS011;8802;52.402;4.920;2024-02-04T06:31:43;6.72;;;1.77;;
17369;SDS011;8802;52.402;4.920;2024-02-04T06:34:11;7.75;;;1.80;;
17369;SDS011;8802;52.402;4.920;2024-02-04T06:36:37;7.53;;;2.17;;
17369;SDS011;8802;52.402;4.920;2024-02-04T06:39:08;4.03;;;1.50;;
17369;SDS011;8802;52.402;4.920;2024-02-04T06:41:35;5.40;;;1.95;;
17369;SDS011;8802;52.402;4.920;2024-02-04T06:44:03;3.72;;;1.98;;
17369;SDS011;8802;52.402;4.920;2024-02-04T06:46:30;4.97;;;1.98;;
17369;SDS011;8802;52.402;4.920;2024-02-04T06:48:57;4.82;;;1.65;;
17369;SDS011;8802;52.402;4.920;2024-02-04T06:51:24;4.50;;;1.90;;
17369;SDS011;8802;52.402;4.920;2024-02-04T06:53:51;4.43;;;1.88;;
17369;SDS011;8802;52.402;4.920;2024-02-04T06:56:18;3.72;;;1.60;;
17369;SDS011;8802;52.402;4.920;2024-02-04T06:58:45;7.30;;;2.00;;
17369;SDS011;8802;52.402;4.920;2024-02-04T07:01:13;5.45;;;2.28;;
17369;SDS011;8802;52.402;4.920;2024-02-04T07:03:40;5.18;;;2.17;;
17369;SDS011;8802;52.402;4.920;2024-02-04T07:06:07;6.50;;;2.55;;
17369;SDS011;8802;52.402;4.920;2024-02-04T07:08:34;4.38;;;2.63;;
17369;SDS011;8802;52.402;4.920;2024-02-04T07:11:00;4.32;;;2.20;;
17369;SDS011;8802;52.402;4.920;2024-02-04T07:13:28;3.80;;;2.15;;
17369;SDS011;8802;52.402;4.920;2024-02-04T07:15:55;5.88;;;2.42;;
17369;SDS011;8802;52.402;4.920;2024-02-04T07:18:24;5.05;;;3.22;;
17369;SDS011;8802;52.402;4.920;2024-02-04T07:20:51;5.68;;;4.15;;
17369;SDS011;8802;52.402;4.920;2024-02-04T07:23:18;8.73;;;3.90;;
17369;SDS011;8802;52.402;4.920;2024-02-04T07:25:44;10.30;;;4.82;;
17369;SDS011;8802;52.402;4.920;2024-02-04T07:28:11;10.57;;;5.05;;
17369;SDS011;8802;52.402;4.920;2024-02-04T07:30:38;6.35;;;3.97;;
17369;SDS011;8802;52.402;4.920;2024-02-04T07:33:05;6.97;;;4.07;;
17369;SDS011;8802;52.402;4.920;2024-02-04T07:35:33;8.63;;;3.80;;
17369;SDS011;8802;52.402;4.920;2024-02-04T07:38:00;7.38;;;3.53;;
17369;SDS011;8802;52.402;4.920;2024-02-04T07:40:27;7.10;;;3.17;;
17369;SDS011;8802;52.402;4.920;2024-02-04T07:42:55;8.27;;;3.47;;
17369;SDS011;8802;52.402;4.920;2024-02-04T07:45:22;8.35;;;3.03;;
17369;SDS011;8802;52.402;4.920;2024-02-04T07:47:49;10.07;;;2.80;;
17369;SDS011;8802;52.402;4.920;2024-02-04T07:50:16;9.63;;;3.03;;
17369;SDS011;8802;52.402;4.920;2024-02-04T07:52:44;8.55;;;2.75;;
17369;SDS011;8802;52.402;4.920;2024-02-04T07:55:11;10.27;;;3.20;;
17369;SDS011;8802;52.402;4.920;2024-02-04T07:57:38;5.25;;;2.10;;
17369;SDS011;8802;52.402;4.920;2024-02-04T08:00:05;8.65;;;2.50;;
17369;SDS011;8802;52.402;4.920;2024-02-04T08:02:35;7.57;;;2.80;;
17369;SDS011;8802;52.402;4.920;2024-02-04T08:05:02;9.32;;;2.53;;
17369;SDS011;8802;52.402;4.920;2024-02-04T08:07:29;7.05;;;2.20;;
17369;SDS011;8802;52.402;4.920;2024-02-04T08:09:57;7.72;;;2.50;;
17369;SDS011;8802;52.402;4.920;2024-02-04T08:12:24;6.55;;;2.45;;
17369;SDS011;8802;52.402;4.920;2024-02-04T08:14:51;5.18;;;2.30;;
17369;SDS011;8802;52.402;4.920;2024-02-04T08:17:18;6.05;;;1.92;;
17369;SDS011;8802;52.402;4.920;2024-02-04T08:19:45;6.30;;;2.22;;
17369;SDS011;8802;52.402;4.920;2024-02-04T08:22:11;6.43;;;1.98;;
17369;SDS011;8802;52.402;4.920;2024-02-04T08:24:38;7.03;;;1.98;;
17369;SDS011;8802;52.402;4.920;2024-02-04T08:27:07;7.35;;;2.25;;
17369;SDS011;8802;52.402;4.920;2024-02-04T08:29:34;7.43;;;1.92;;
17369;SDS011;8802;52.402;4.920;2024-02-04T08:32:01;6.20;;;1.83;;
17369;SDS011;8802;52.402;4.920;2024-02-04T08:34:27;6.85;;;2.17;;
17369;SDS011;8802;52.402;4.920;2024-02-04T08:36:54;4.95;;;1.70;;
17369;SDS011;8802;52.402;4.920;2024-02-04T08:39:21;6.63;;;2.20;;
17369;SDS011;8802;52.402;4.920;2024-02-04T08:41:48;6.82;;;2.55;;
17369;SDS011;8802;52.402;4.920;2024-02-04T08:44:16;5.22;;;2.40;;
17369;SDS011;8802;52.402;4.920;2024-02-04T08:46:43;8.05;;;3.22;;
17369;SDS011;8802;52.402;4.920;2024-02-04T08:49:10;8.60;;;2.97;;
17369;SDS011;8802;52.402;4.920;2024-02-04T08:51:37;7.03;;;3.05;;
17369;SDS011;8802;52.402;4.920;2024-02-04T08:54:04;8.15;;;3.28;;
17369;SDS011;8802;52.402;4.920;2024-02-04T08:56:31;7.88;;;3.33;;
17369;SDS011;8802;52.402;4.920;2024-02-04T08:58:58;8.13;;;2.83;;
17369;SDS011;8802;52.402;4.920;2024-02-04T09:01:28;7.80;;;2.92;;
17369;SDS011;8802;52.402;4.920;2024-02-04T09:03:55;10.82;;;3.95;;
17369;SDS011;8802;52.402;4.920;2024-02-04T09:06:21;8.77;;;2.65;;
17369;SDS011;8802;52.402;4.920;2024-02-04T09:08:48;8.10;;;2.63;;
17369;SDS011;8802;52.402;4.920;2024-02-04T09:11:15;5.97;;;2.28;;
17369;SDS011;8802;52.402;4.920;2024-02-04T09:13:44;7.00;;;2.25;;
17369;SDS011;8802;52.402;4.920;2024-02-04T09:16:10;10.15;;;2.83;;
17369;SDS011;8802;52.402;4.920;2024-02-04T09:18:39;9.55;;;2.72;;
17369;SDS011;8802;52.402;4.920;2024-02-04T09:21:06;6.00;;;2.17;;
17369;SDS011;8802;52.402;4.920;2024-02-04T09:23:33;7.65;;;2.42;;
17369;SDS011;8802;52.402;4.920;2024-02-04T09:26:00;6.93;;;1.90;;
17369;SDS011;8802;52.402;4.920;2024-02-04T09:28:26;6.95;;;2.17;;
17369;SDS011;8802;52.402;4.920;2024-02-04T09:30:53;10.75;;;2.47;;
17369;SDS011;8802;52.402;4.920;2024-02-04T09:33:20;3.80;;;1.70;;
17369;SDS011;8802;52.402;4.920;2024-02-04T09:35:49;7.57;;;1.92;;
17369;SDS011;8802;52.402;4.920;2024-02-04T09:38:15;7.47;;;2.10;;
17369;SDS011;8802;52.402;4.920;2024-02-04T09:40:42;9.07;;;2.65;;
17369;SDS011;8802;52.402;4.920;2024-02-04T09:43:09;5.00;;;2.20;;
17369;SDS011;8802;52.402;4.920;2024-02-04T09:45:36;5.15;;;1.73;;
17369;SDS011;8802;52.402;4.920;2024-02-04T09:48:04;7.82;;;1.88;;
17369;SDS011;8802;52.402;4.920;2024-02-04T09:50:34;6.15;;;1.88;;
17369;SDS011;8802;52.402;4.920;2024-02-04T09:53:02;6.82;;;2.13;;
17369;SDS011;8802;52.402;4.920;2024-02-04T09:55:30;7.88;;;1.83;;
17369;SDS011;8802;52.402;4.920;2024-02-04T09:57:57;7.43;;;1.70;;
17369;SDS011;8802;52.402;4.920;2024-02-04T10:00:26;5.68;;;1.83;;
17369;SDS011;8802;52.402;4.920;2024-02-04T10:02:55;9.35;;;1.77;;
17369;SDS011;8802;52.402;4.920;2024-02-04T10:05:22;6.28;;;1.77;;
17369;SDS011;8802;52.402;4.920;2024-02-04T10:07:49;5.15;;;1.50;;
17369;SDS011;8802;52.402;4.920;2024-02-04T10:10:17;4.53;;;1.42;;
17369;SDS011;8802;52.402;4.920;2024-02-04T10:12:44;3.80;;;1.65;;
17369;SDS011;8802;52.402;4.920;2024-02-04T10:15:11;5.65;;;1.52;;
17369;SDS011;8802;52.402;4.920;2024-02-04T10:17:41;2.65;;;1.38;;
17369;SDS011;8802;52.402;4.920;2024-02-04T10:20:09;4.72;;;1.50;;
17369;SDS011;8802;52.402;4.920;2024-02-04T10:22:37;8.35;;;2.10;;
17369;SDS011;8802;52.402;4.920;2024-02-04T10:25:07;6.43;;;1.35;;
17369;SDS011;8802;52.402;4.920;2024-02-04T10:27:38;6.25;;;1.67;;
17369;SDS011;8802;52.402;4.920;2024-02-04T10:30:07;4.20;;;1.35;;
17369;SDS011;8802;52.402;4.920;2024-02-04T10:32:34;4.93;;;1.58;;
17369;SDS011;8802;52.402;4.920;2024-02-04T10:35:01;5.43;;;1.55;;
17369;SDS011;8802;52.402;4.920;2024-02-04T10:37:28;4.05;;;1.60;;
17369;SDS011;8802;52.402;4.920;2024-02-04T10:39:55;5.22;;;1.40;;
17369;SDS011;8802;52.402;4.920;2024-02-04T10:42:23;7.57;;;1.77;;
17369;SDS011;8802;52.402;4.920;2024-02-04T10:44:53;5.20;;;1.70;;
17369;SDS011;8802;52.402;4.920;2024-02-04T10:47:22;6.28;;;1.27;;
17369;SDS011;8802;52.402;4.920;2024-02-04T10:49:50;5.75;;;1.40;;
17369;SDS011;8802;52.402;4.920;2024-02-04T10:52:19;5.85;;;1.40;;
17369;SDS011;8802;52.402;4.920;2024-02-04T10:54:48;5.28;;;1.40;;
17369;SDS011;8802;52.402;4.920;2024-02-04T10:57:17;3.47;;;0.95;;
17369;SDS011;8802;52.402;4.920;2024-02-04T10:59:46;9.00;;;1.75;;
17369;SDS011;8802;52.402;4.920;2024-02-04T11:02:15;6.90;;;1.33;;
17369;SDS011;8802;52.402;4.920;2024-02-04T11:04:42;8.23;;;1.63;;
17369;SDS011;8802;52.402;4.920;2024-02-04T11:07:11;4.97;;;1.20;;
17369;SDS011;8802;52.402;4.920;2024-02-04T11:09:40;5.82;;;1.25;;
17369;SDS011;8802;52.402;4.920;2024-02-04T11:12:09;5.57;;;1.27;;
17369;SDS011;8802;52.402;4.920;2024-02-04T11:14:41;4.32;;;1.63;;
17369;SDS011;8802;52.402;4.920;2024-02-04T11:17:32;5.07;;;1.05;;
17369;SDS011;8802;52.402;4.920;2024-02-04T11:20:23;4.90;;;1.73;;
17369;SDS011;8802;52.402;4.920;2024-02-04T11:23:05;5.18;;;1.23;;
17369;SDS011;8802;52.402;4.920;2024-02-04T11:25:47;4.15;;;1.10;;
17369;SDS011;8802;52.402;4.920;2024-02-04T11:28:16;5.90;;;1.08;;
17369;SDS011;8802;52.402;4.920;2024-02-04T11:30:45;4.10;;;1.15;;
17369;SDS011;8802;52.402;4.920;2024-02-04T11:33:17;3.42;;;0.88;;
17369;SDS011;8802;52.402;4.920;2024-02-04T11:35:45;2.88;;;1.00;;
17369;SDS011;8802;52.402;4.920;2024-02-04T11:38:12;3.28;;;1.05;;
17369;SDS011;8802;52.402;4.920;2024-02-04T11:40:45;4.13;;;0.93;;
17369;SDS011;8802;52.402;4.920;2024-02-04T11:43:13;3.85;;;0.93;;
17369;SDS011;8802;52.402;4.920;2024-02-04T11:45:40;4.38;;;1.33;;
17369;SDS011;8802;52.402;4.920;2024-02-04T11:48:09;6.05;;;1.45;;
17369;SDS011;8802;52.402;4.920;2024-02-04T11:50:38;4.32;;;1.55;;
17369;SDS011;8802;52.402;4.920;2024-02-04T11:53:06;5.00;;;1.27;;
17369;SDS011;8802;52.402;4.920;2024-02-04T11:55:34;4.03;;;1.33;;
17369;SDS011;8802;52.402;4.920;2024-02-04T11:58:01;4.50;;;1.60;;
17369;SDS011;8802;52.402;4.920;2024-02-04T12:00:30;3.88;;;1.80;;
17369;SDS011;8802;52.402;4.920;2024-02-04T12:03:01;3.45;;;1.30;;
17369;SDS011;8802;52.402;4.920;2024-02-04T12:05:29;6.57;;;1.80;;
17369;SDS011;8802;52.402;4.920;2024-02-04T12:07:58;3.83;;;1.80;;
17369;SDS011;8802;52.402;4.920;2024-02-04T12:10:26;7.75;;;2.50;;
17369;SDS011;8802;52.402;4.920;2024-02-04T12:12:53;9.23;;;2.60;;
17369;SDS011;8802;52.402;4.920;2024-02-04T12:15:21;9.55;;;2.28;;
17369;SDS011;8802;52.402;4.920;2024-02-04T12:17:48;11.98;;;2.47;;
17369;SDS011;8802;52.402;4.920;2024-02-04T12:20:14;6.82;;;2.33;;
17369;SDS011;8802;52.402;4.920;2024-02-04T12:22:42;13.00;;;2.60;;
17369;SDS011;8802;52.402;4.920;2024-02-04T12:25:10;7.53;;;2.50;;
17369;SDS011;8802;52.402;4.920;2024-02-04T12:27:38;12.38;;;2.25;;
17369;SDS011;8802;52.402;4.920;2024-02-04T12:30:05;11.77;;;2.55;;
17369;SDS011;8802;52.402;4.920;2024-02-04T12:32:33;7.47;;;2.10;;
17369;SDS011;8802;52.402;4.920;2024-02-04T12:35:01;12.20;;;2.10;;
17369;SDS011;8802;52.402;4.920;2024-02-04T12:37:28;6.32;;;1.83;;
17369;SDS011;8802;52.402;4.920;2024-02-04T12:39:55;9.00;;;2.28;;
17369;SDS011;8802;52.402;4.920;2024-02-04T12:42:25;7.38;;;2.05;;
17369;SDS011;8802;52.402;4.920;2024-02-04T12:44:56;7.65;;;1.55;;
17369;SDS011;8802;52.402;4.920;2024-02-04T12:47:23;8.35;;;2.28;;
17369;SDS011;8802;52.402;4.920;2024-02-04T12:49:57;7.55;;;1.65;;
17369;SDS011;8802;52.402;4.920;2024-02-04T12:52:24;5.82;;;1.70;;
17369;SDS011;8802;52.402;4.920;2024-02-04T12:54:51;11.02;;;2.22;;
17369;SDS011;8802;52.402;4.920;2024-02-04T12:57:23;6.95;;;2.22;;
17369;SDS011;8802;52.402;4.920;2024-02-04T12:59:51;8.80;;;2.10;;
17369;SDS011;8802;52.402;4.920;2024-02-04T13:02:18;13.18;;;3.22;;
17369;SDS011;8802;52.402;4.920;2024-02-04T13:04:46;11.60;;;2.53;;
17369;SDS011;8802;52.402;4.920;2024-02-04T13:07:13;12.57;;;2.72;;
17369;SDS011;8802;52.402;4.920;2024-02-04T13:09:42;9.27;;;2.40;;
17369;SDS011;8802;52.402;4.920;2024-02-04T13:12:10;9.02;;;2.13;;
17369;SDS011;8802;52.402;4.920;2024-02-04T13:14:37;10.40;;;2.50;;
17369;SDS011;8802;52.402;4.920;2024-02-04T13:17:06;8.05;;;2.20;;
17369;SDS011;8802;52.402;4.920;2024-02-04T13:19:33;8.95;;;1.95;;
17369;SDS011;8802;52.402;4.920;2024-02-04T13:22:01;11.50;;;2.60;;
17369;SDS011;8802;52.402;4.920;2024-02-04T13:24:28;10.70;;;2.50;;
17369;SDS011;8802;52.402;4.920;2024-02-04T13:26:55;9.95;;;2.38;;
17369;SDS011;8802;52.402;4.920;2024-02-04T13:29:22;10.95;;;2.42;;
17369;SDS011;8802;52.402;4.920;2024-02-04T13:31:49;8.23;;;1.65;;
17369;SDS011;8802;52.402;4.920;2024-02-04T13:34:17;9.32;;;2.03;;
17369;SDS011;8802;52.402;4.920;2024-02-04T13:36:45;9.18;;;2.20;;
17369;SDS011;8802;52.402;4.920;2024-02-04T13:39:12;9.20;;;2.35;;
17369;SDS011;8802;52.402;4.920;2024-02-04T13:41:39;8.63;;;2.17;;
17369;SDS011;8802;52.402;4.920;2024-02-04T13:44:06;8.60;;;2.20;;
17369;SDS011;8802;52.402;4.920;2024-02-04T13:46:33;6.68;;;2.00;;
17369;SDS011;8802;52.402;4.920;2024-02-04T13:49:00;8.50;;;2.08;;
17369;SDS011;8802;52.402;4.920;2024-02-04T13:51:29;10.80;;;3.00;;
17369;SDS011;8802;52.402;4.920;2024-02-04T13:53:56;9.13;;;2.08;;
17369;SDS011;8802;52.402;4.920;2024-02-04T13:56:22;9.30;;;2.28;;
17369;SDS011;8802;52.402;4.920;2024-02-04T13:58:49;7.40;;;2.40;;
17369;SDS011;8802;52.402;4.920;2024-02-04T14:01:16;9.48;;;2.78;;
17369;SDS011;8802;52.402;4.920;2024-02-04T14:03:45;11.75;;;2.38;;
17369;SDS011;8802;52.402;4.920;2024-02-04T14:06:12;10.98;;;2.53;;
17369;SDS011;8802;52.402;4.920;2024-02-04T14:08:40;9.98;;;2.15;;
17369;SDS011;8802;52.402;4.920;2024-02-04T14:11:07;9.70;;;2.50;;
17369;SDS011;8802;52.402;4.920;2024-02-04T14:13:34;8.27;;;2.28;;
17369;SDS011;8802;52.402;4.920;2024-02-04T14:16:01;8.23;;;2.40;;
17369;SDS011;8802;52.402;4.920;2024-02-04T14:18:28;10.07;;;2.30;;
17369;SDS011;8802;52.402;4.920;2024-02-04T14:20:55;8.13;;;2.20;;
17369;SDS011;8802;52.402;4.920;2024-02-04T14:23:22;10.13;;;2.33;;
17369;SDS011;8802;52.402;4.920;2024-02-04T14:25:50;12.85;;;2.40;;
17369;SDS011;8802;52.402;4.920;2024-02-04T14:28:17;13.43;;;3.00;;
17369;SDS011;8802;52.402;4.920;2024-02-04T14:30:44;6.95;;;2.50;;
17369;SDS011;8802;52.402;4.920;2024-02-04T14:33:11;10.70;;;2.80;;
17369;SDS011;8802;52.402;4.920;2024-02-04T14:35:38;8.60;;;2.50;;
17369;SDS011;8802;52.402;4.920;2024-02-04T14:38:05;8.10;;;2.63;;
17369;SDS011;8802;52.402;4.920;2024-02-04T14:40:32;10.18;;;2.88;;
17369;SDS011;8802;52.402;4.920;2024-02-04T14:43:00;12.40;;;2.63;;
17369;SDS011;8802;52.402;4.920;2024-02-04T14:45:27;9.43;;;2.20;;
17369;SDS011;8802;52.402;4.920;2024-02-04T14:47:54;10.57;;;2.90;;
17369;SDS011;8802;52.402;4.920;2024-02-04T14:50:21;10.60;;;2.70;;
17369;SDS011;8802;52.402;4.920;2024-02-04T14:52:48;9.38;;;2.03;;
17369;SDS011;8802;52.402;4.920;2024-02-04T14:55:14;9.75;;;2.08;;
17369;SDS011;8802;52.402;4.920;2024-02-04T14:57:41;11.13;;;2.50;;
17369;SDS011;8802;52.402;4.920;2024-02-04T15:00:10;7.78;;;2.08;;